This is the latest recevied weather packets stored in our database for station/object BMCB-35. If no packets are shown the sender has not sent any weather packets the latest 10 day(s).
| Time | Temp. | Humidity | Pressure | Rain* | Wind** | Luminosity | Snow |
|---|---|---|---|---|---|---|---|
| 1778220640 | 10° C | 86% | 1017.7 hPa | 0 mm | - | 214 W/m² | - |
| 1778220634 | 9.44° C | 89% | 1017.7 hPa | 0 mm | - | 186 W/m² | - |
| 1778220008 | 9.44° C | 89% | 1017.7 hPa | 0 mm | - | 186 W/m² | - |
| 1778219440 | 8.89° C | 94% | 1017.8 hPa | 0 mm | - | 160 W/m² | - |
| 1778219436 | 8.33° C | 97% | 1017.9 hPa | 0 mm | - | 136 W/m² | - |
| 1778218232 | 7.78° C | 10% | 1017.9 hPa | 0 mm | - | - | - |
| 1778217632 | 6.67° C | 10% | 1017.8 hPa | 0 mm | - | - | - |
| 1778216403 | 6.67° C | 10% | 1017.7 hPa | 0 mm | - | - | - |
| 1778214603 | 6.67° C | 99% | 1017.6 hPa | 0 mm | - | 1 W/m² | - |
| 1778211643 | 7.22° C | 99% | 1017.4 hPa | 0 mm | - | 0 W/m² | - |
| 1778211036 | 7.22° C | 99% | 1017.3 hPa | 0 mm | - | 0 W/m² | - |
| 1778207404 | 7.78° C | 98% | 1017.3 hPa | 0 mm | - | 0 W/m² | - |
| 1778204406 | 8.33° C | 96% | 1017.3 hPa | 0 mm | - | 0 W/m² | - |
| 1778203259 | 8.33° C | 97% | 1017.3 hPa | 0 mm | - | 0 W/m² | - |
| 1778202656 | 8.33° C | 96% | 1017.3 hPa | 0 mm | - | 0 W/m² | - |
| 1778200804 | 8.33° C | 96% | 1017.2 hPa | 0 mm | - | 0 W/m² | - |
| 1778199013 | 8.33° C | 96% | 1017.4 hPa | 0 mm | - | 0 W/m² | - |
| 1778198404 | 8.33° C | 95% | 1017.4 hPa | 0 mm | - | 0 W/m² | - |
| 1778194837 | 9.44° C | 91% | 1017.4 hPa | 0 mm | - | 0 W/m² | - |
| 1778193621 | 10° C | 90% | 1017.4 hPa | 0 mm | - | 0 W/m² | - |
| 1778188840 | 10.56° C | 85% | 1017.3 hPa | 0 mm | - | 0 W/m² | - |
| 1778187611 | 11.11° C | 84% | 1017.2 hPa | 0 mm | - | 0 W/m² | - |
| 1778186434 | 11.11° C | 82% | 1017.1 hPa | 0 mm | - | 0 W/m² | - |
| 1778185826 | 11.11° C | 82% | 1017 hPa | 0 mm | - | 0 W/m² | - |
| 1778184634 | 11.11° C | 81% | 1016.9 hPa | 0 mm | - | 0 W/m² | - |
* Rain latest hour (hover to see other rain measurements)
** Current wind speed in m/s (hover to see current wind gust speed)